Terminal Aerodrome Forecast
Issued by NWS Twin Cities, MN

Home | Current Version | Previous Version | Text Only | Print | Product List | Glossary Off
Versions: 1 2 3 4 5 6 7 8 9 10 11 12 13 14 15 16 17 18 19 20 21 22 23 24 25 26 27 28

000
FTUS43 KMPX 291128
TAFMSP
TAF
KMSP 291128Z 2912/3018 25012KT P6SM FEW300
     FM291400 27015G26KT P6SM SKC
     FM291600 27022G32KT P6SM FEW060
     FM300100 27007KT P6SM SKC=

USA.gov is the U.S. government's official web portal to all federal, state and local government web resources and services.